sensor_id;sensor_type;location;lat;lon;timestamp;P1;durP1;ratioP1;P2;durP2;ratioP2
12042;SDS011;6082;49.306;12.862;2023-06-14T00:01:54;4.10;;;3.27;;
12042;SDS011;6082;49.306;12.862;2023-06-14T00:04:20;4.67;;;3.43;;
12042;SDS011;6082;49.306;12.862;2023-06-14T00:06:47;4.07;;;3.23;;
12042;SDS011;6082;49.306;12.862;2023-06-14T00:09:13;5.20;;;3.40;;
12042;SDS011;6082;49.306;12.862;2023-06-14T00:11:40;4.00;;;3.50;;
12042;SDS011;6082;49.306;12.862;2023-06-14T00:14:06;5.93;;;3.77;;
12042;SDS011;6082;49.306;12.862;2023-06-14T00:16:32;4.50;;;3.10;;
12042;SDS011;6082;49.306;12.862;2023-06-14T00:18:58;5.33;;;3.73;;
12042;SDS011;6082;49.306;12.862;2023-06-14T00:21:24;7.93;;;3.93;;
12042;SDS011;6082;49.306;12.862;2023-06-14T00:23:54;3.63;;;3.03;;
12042;SDS011;6082;49.306;12.862;2023-06-14T00:26:21;6.97;;;3.40;;
12042;SDS011;6082;49.306;12.862;2023-06-14T00:28:46;5.43;;;3.10;;
12042;SDS011;6082;49.306;12.862;2023-06-14T00:31:13;7.33;;;3.70;;
12042;SDS011;6082;49.306;12.862;2023-06-14T00:33:38;5.67;;;3.53;;
12042;SDS011;6082;49.306;12.862;2023-06-14T00:36:04;3.87;;;3.20;;
12042;SDS011;6082;49.306;12.862;2023-06-14T00:38:30;6.83;;;3.53;;
12042;SDS011;6082;49.306;12.862;2023-06-14T00:40:56;4.70;;;3.63;;
12042;SDS011;6082;49.306;12.862;2023-06-14T00:43:21;7.03;;;4.00;;
12042;SDS011;6082;49.306;12.862;2023-06-14T00:45:47;5.17;;;3.77;;
12042;SDS011;6082;49.306;12.862;2023-06-14T00:48:14;5.23;;;3.90;;
12042;SDS011;6082;49.306;12.862;2023-06-14T00:50:40;7.37;;;3.73;;
12042;SDS011;6082;49.306;12.862;2023-06-14T00:53:07;4.33;;;3.53;;
12042;SDS011;6082;49.306;12.862;2023-06-14T00:55:32;5.23;;;3.63;;
12042;SDS011;6082;49.306;12.862;2023-06-14T00:57:58;4.80;;;3.70;;
12042;SDS011;6082;49.306;12.862;2023-06-14T01:00:25;4.97;;;3.80;;
12042;SDS011;6082;49.306;12.862;2023-06-14T01:02:51;3.77;;;3.20;;
12042;SDS011;6082;49.306;12.862;2023-06-14T01:05:16;4.40;;;3.50;;
12042;SDS011;6082;49.306;12.862;2023-06-14T01:15:50;6.10;;;4.03;;
12042;SDS011;6082;49.306;12.862;2023-06-14T01:18:17;6.77;;;4.37;;
12042;SDS011;6082;49.306;12.862;2023-06-14T01:20:47;7.70;;;4.00;;
12042;SDS011;6082;49.306;12.862;2023-06-14T01:23:19;7.33;;;4.23;;
12042;SDS011;6082;49.306;12.862;2023-06-14T01:25:46;6.33;;;3.73;;
12042;SDS011;6082;49.306;12.862;2023-06-14T01:28:13;5.47;;;3.80;;
12042;SDS011;6082;49.306;12.862;2023-06-14T01:30:41;5.37;;;4.20;;
12042;SDS011;6082;49.306;12.862;2023-06-14T01:33:16;7.53;;;4.13;;
12042;SDS011;6082;49.306;12.862;2023-06-14T01:35:47;4.70;;;3.87;;
12042;SDS011;6082;49.306;12.862;2023-06-14T01:38:17;8.07;;;4.30;;
12042;SDS011;6082;49.306;12.862;2023-06-14T01:40:45;7.13;;;3.97;;
12042;SDS011;6082;49.306;12.862;2023-06-14T01:43:13;7.53;;;4.33;;
12042;SDS011;6082;49.306;12.862;2023-06-14T01:45:40;4.93;;;4.03;;
12042;SDS011;6082;49.306;12.862;2023-06-14T01:48:07;5.07;;;3.77;;
12042;SDS011;6082;49.306;12.862;2023-06-14T01:50:33;5.97;;;3.70;;
12042;SDS011;6082;49.306;12.862;2023-06-14T01:52:59;4.47;;;3.47;;
12042;SDS011;6082;49.306;12.862;2023-06-14T01:55:25;5.27;;;3.83;;
12042;SDS011;6082;49.306;12.862;2023-06-14T01:57:52;5.67;;;3.77;;
12042;SDS011;6082;49.306;12.862;2023-06-14T02:00:18;5.57;;;3.60;;
12042;SDS011;6082;49.306;12.862;2023-06-14T02:02:44;5.73;;;4.10;;
12042;SDS011;6082;49.306;12.862;2023-06-14T02:05:11;5.57;;;4.10;;
12042;SDS011;6082;49.306;12.862;2023-06-14T02:07:36;5.33;;;4.00;;
12042;SDS011;6082;49.306;12.862;2023-06-14T02:10:02;9.20;;;4.17;;
12042;SDS011;6082;49.306;12.862;2023-06-14T02:12:29;5.47;;;4.30;;
12042;SDS011;6082;49.306;12.862;2023-06-14T02:14:55;4.87;;;3.83;;
12042;SDS011;6082;49.306;12.862;2023-06-14T02:17:23;5.97;;;4.40;;
12042;SDS011;6082;49.306;12.862;2023-06-14T02:19:49;6.60;;;4.23;;
12042;SDS011;6082;49.306;12.862;2023-06-14T02:22:15;5.90;;;4.57;;
12042;SDS011;6082;49.306;12.862;2023-06-14T02:24:41;6.67;;;4.77;;
12042;SDS011;6082;49.306;12.862;2023-06-14T02:27:14;7.00;;;4.20;;
12042;SDS011;6082;49.306;12.862;2023-06-14T02:29:42;7.37;;;4.50;;
12042;SDS011;6082;49.306;12.862;2023-06-14T02:32:08;5.23;;;3.93;;
12042;SDS011;6082;49.306;12.862;2023-06-14T02:34:34;6.27;;;4.60;;
12042;SDS011;6082;49.306;12.862;2023-06-14T02:37:00;7.13;;;4.57;;
12042;SDS011;6082;49.306;12.862;2023-06-14T02:39:28;6.93;;;4.80;;
12042;SDS011;6082;49.306;12.862;2023-06-14T02:41:54;6.27;;;4.60;;
12042;SDS011;6082;49.306;12.862;2023-06-14T02:44:24;9.90;;;5.27;;
12042;SDS011;6082;49.306;12.862;2023-06-14T02:46:51;7.47;;;4.73;;
12042;SDS011;6082;49.306;12.862;2023-06-14T02:49:17;5.83;;;4.50;;
12042;SDS011;6082;49.306;12.862;2023-06-14T02:51:43;12.83;;;4.87;;
12042;SDS011;6082;49.306;12.862;2023-06-14T02:54:09;7.87;;;4.67;;
12042;SDS011;6082;49.306;12.862;2023-06-14T02:56:35;7.87;;;4.70;;
12042;SDS011;6082;49.306;12.862;2023-06-14T02:59:01;6.50;;;4.93;;
12042;SDS011;6082;49.306;12.862;2023-06-14T03:01:27;6.90;;;4.93;;
12042;SDS011;6082;49.306;12.862;2023-06-14T03:04:02;7.57;;;4.73;;
12042;SDS011;6082;49.306;12.862;2023-06-14T03:06:29;6.43;;;4.93;;
12042;SDS011;6082;49.306;12.862;2023-06-14T03:08:55;6.10;;;4.83;;
12042;SDS011;6082;49.306;12.862;2023-06-14T03:11:29;9.37;;;5.03;;
12042;SDS011;6082;49.306;12.862;2023-06-14T03:13:58;7.33;;;5.10;;
12042;SDS011;6082;49.306;12.862;2023-06-14T03:16:25;7.53;;;4.70;;
12042;SDS011;6082;49.306;12.862;2023-06-14T03:18:53;6.90;;;5.20;;
12042;SDS011;6082;49.306;12.862;2023-06-14T03:21:19;5.90;;;4.90;;
12042;SDS011;6082;49.306;12.862;2023-06-14T03:23:46;6.90;;;5.40;;
12042;SDS011;6082;49.306;12.862;2023-06-14T03:26:12;6.63;;;4.57;;
12042;SDS011;6082;49.306;12.862;2023-06-14T03:28:39;6.90;;;4.90;;
12042;SDS011;6082;49.306;12.862;2023-06-14T03:31:05;9.00;;;4.93;;
12042;SDS011;6082;49.306;12.862;2023-06-14T03:33:31;9.47;;;5.10;;
12042;SDS011;6082;49.306;12.862;2023-06-14T03:35:57;5.50;;;4.30;;
12042;SDS011;6082;49.306;12.862;2023-06-14T03:38:23;10.00;;;5.33;;
12042;SDS011;6082;49.306;12.862;2023-06-14T03:40:48;8.40;;;6.10;;
12042;SDS011;6082;49.306;12.862;2023-06-14T03:43:14;6.67;;;4.50;;
12042;SDS011;6082;49.306;12.862;2023-06-14T03:45:40;9.10;;;5.33;;
12042;SDS011;6082;49.306;12.862;2023-06-14T03:48:05;6.70;;;5.40;;
12042;SDS011;6082;49.306;12.862;2023-06-14T03:50:33;7.67;;;5.57;;
12042;SDS011;6082;49.306;12.862;2023-06-14T03:52:59;7.57;;;4.70;;
12042;SDS011;6082;49.306;12.862;2023-06-14T03:55:26;9.23;;;4.90;;
12042;SDS011;6082;49.306;12.862;2023-06-14T03:57:52;7.43;;;5.40;;
12042;SDS011;6082;49.306;12.862;2023-06-14T04:00:18;9.33;;;5.37;;
12042;SDS011;6082;49.306;12.862;2023-06-14T04:02:44;6.97;;;5.07;;
12042;SDS011;6082;49.306;12.862;2023-06-14T04:05:10;8.17;;;5.60;;
12042;SDS011;6082;49.306;12.862;2023-06-14T04:07:36;7.37;;;5.57;;
12042;SDS011;6082;49.306;12.862;2023-06-14T04:10:10;6.23;;;4.63;;
12042;SDS011;6082;49.306;12.862;2023-06-14T04:12:37;8.03;;;5.60;;
12042;SDS011;6082;49.306;12.862;2023-06-14T04:15:03;8.23;;;5.63;;
12042;SDS011;6082;49.306;12.862;2023-06-14T04:17:31;7.60;;;5.67;;
12042;SDS011;6082;49.306;12.862;2023-06-14T04:19:58;8.43;;;5.93;;
12042;SDS011;6082;49.306;12.862;2023-06-14T04:22:25;6.83;;;5.87;;
12042;SDS011;6082;49.306;12.862;2023-06-14T04:24:55;8.10;;;5.77;;
12042;SDS011;6082;49.306;12.862;2023-06-14T04:27:22;7.40;;;5.87;;
12042;SDS011;6082;49.306;12.862;2023-06-14T04:29:51;8.57;;;6.03;;
12042;SDS011;6082;49.306;12.862;2023-06-14T04:32:24;10.63;;;5.83;;
12042;SDS011;6082;49.306;12.862;2023-06-14T04:34:55;7.57;;;5.57;;
12042;SDS011;6082;49.306;12.862;2023-06-14T04:37:22;8.37;;;5.63;;
12042;SDS011;6082;49.306;12.862;2023-06-14T04:39:48;6.63;;;5.13;;
12042;SDS011;6082;49.306;12.862;2023-06-14T04:42:15;8.97;;;5.77;;
12042;SDS011;6082;49.306;12.862;2023-06-14T04:44:44;9.27;;;6.00;;
12042;SDS011;6082;49.306;12.862;2023-06-14T04:47:10;7.97;;;5.97;;
12042;SDS011;6082;49.306;12.862;2023-06-14T04:49:41;8.93;;;6.53;;
12042;SDS011;6082;49.306;12.862;2023-06-14T04:52:09;10.00;;;6.27;;
12042;SDS011;6082;49.306;12.862;2023-06-14T04:54:37;7.83;;;5.67;;
12042;SDS011;6082;49.306;12.862;2023-06-14T04:57:07;8.77;;;6.67;;
12042;SDS011;6082;49.306;12.862;2023-06-14T04:59:33;11.07;;;6.87;;
12042;SDS011;6082;49.306;12.862;2023-06-14T05:02:00;8.30;;;6.07;;
12042;SDS011;6082;49.306;12.862;2023-06-14T05:04:26;9.33;;;6.03;;
12042;SDS011;6082;49.306;12.862;2023-06-14T05:06:53;10.50;;;6.53;;
12042;SDS011;6082;49.306;12.862;2023-06-14T05:09:22;8.13;;;6.17;;
12042;SDS011;6082;49.306;12.862;2023-06-14T05:11:48;10.27;;;6.90;;
12042;SDS011;6082;49.306;12.862;2023-06-14T05:14:15;12.60;;;7.80;;
12042;SDS011;6082;49.306;12.862;2023-06-14T05:16:41;11.13;;;7.37;;
12042;SDS011;6082;49.306;12.862;2023-06-14T05:19:07;10.93;;;7.97;;
12042;SDS011;6082;49.306;12.862;2023-06-14T05:21:35;11.43;;;8.07;;
12042;SDS011;6082;49.306;12.862;2023-06-14T05:24:02;10.87;;;7.30;;
12042;SDS011;6082;49.306;12.862;2023-06-14T05:26:28;9.37;;;7.17;;
12042;SDS011;6082;49.306;12.862;2023-06-14T05:28:57;12.40;;;7.00;;
12042;SDS011;6082;49.306;12.862;2023-06-14T05:31:23;9.70;;;7.07;;
12042;SDS011;6082;49.306;12.862;2023-06-14T05:33:51;9.53;;;6.90;;
12042;SDS011;6082;49.306;12.862;2023-06-14T05:36:17;8.63;;;7.27;;
12042;SDS011;6082;49.306;12.862;2023-06-14T05:38:44;10.60;;;6.93;;
12042;SDS011;6082;49.306;12.862;2023-06-14T05:41:10;8.77;;;6.87;;
12042;SDS011;6082;49.306;12.862;2023-06-14T05:43:36;9.80;;;7.33;;
12042;SDS011;6082;49.306;12.862;2023-06-14T05:46:02;9.67;;;7.73;;
12042;SDS011;6082;49.306;12.862;2023-06-14T05:48:28;11.30;;;7.70;;
12042;SDS011;6082;49.306;12.862;2023-06-14T05:50:55;8.07;;;6.40;;
12042;SDS011;6082;49.306;12.862;2023-06-14T05:53:21;9.17;;;7.40;;
12042;SDS011;6082;49.306;12.862;2023-06-14T05:55:46;9.67;;;7.10;;
12042;SDS011;6082;49.306;12.862;2023-06-14T05:58:12;10.60;;;6.77;;
12042;SDS011;6082;49.306;12.862;2023-06-14T06:00:38;7.30;;;6.27;;
12042;SDS011;6082;49.306;12.862;2023-06-14T06:03:05;8.47;;;6.97;;
12042;SDS011;6082;49.306;12.862;2023-06-14T06:05:33;8.63;;;6.20;;
12042;SDS011;6082;49.306;12.862;2023-06-14T06:07:58;8.00;;;6.27;;
12042;SDS011;6082;49.306;12.862;2023-06-14T06:10:25;8.87;;;6.67;;
12042;SDS011;6082;49.306;12.862;2023-06-14T06:12:51;8.33;;;6.17;;
12042;SDS011;6082;49.306;12.862;2023-06-14T06:15:19;7.47;;;5.57;;
12042;SDS011;6082;49.306;12.862;2023-06-14T06:17:45;7.70;;;6.07;;
12042;SDS011;6082;49.306;12.862;2023-06-14T06:20:11;7.27;;;5.70;;
12042;SDS011;6082;49.306;12.862;2023-06-14T06:22:37;9.20;;;5.73;;
12042;SDS011;6082;49.306;12.862;2023-06-14T06:25:03;9.33;;;5.80;;
12042;SDS011;6082;49.306;12.862;2023-06-14T06:27:30;10.97;;;6.17;;
12042;SDS011;6082;49.306;12.862;2023-06-14T06:29:55;8.67;;;5.60;;
12042;SDS011;6082;49.306;12.862;2023-06-14T06:32:21;7.10;;;5.40;;
12042;SDS011;6082;49.306;12.862;2023-06-14T06:34:47;6.43;;;5.30;;
12042;SDS011;6082;49.306;12.862;2023-06-14T06:37:13;8.90;;;6.17;;
12042;SDS011;6082;49.306;12.862;2023-06-14T06:39:39;7.30;;;5.50;;
12042;SDS011;6082;49.306;12.862;2023-06-14T06:42:06;8.13;;;5.50;;
12042;SDS011;6082;49.306;12.862;2023-06-14T06:44:32;11.57;;;6.13;;
12042;SDS011;6082;49.306;12.862;2023-06-14T06:46:58;8.63;;;5.63;;
12042;SDS011;6082;49.306;12.862;2023-06-14T06:49:24;5.60;;;5.00;;
12042;SDS011;6082;49.306;12.862;2023-06-14T06:52:02;9.33;;;5.30;;
12042;SDS011;6082;49.306;12.862;2023-06-14T06:54:30;12.67;;;5.73;;
12042;SDS011;6082;49.306;12.862;2023-06-14T06:56:56;7.67;;;5.27;;
12042;SDS011;6082;49.306;12.862;2023-06-14T06:59:22;9.17;;;5.27;;
12042;SDS011;6082;49.306;12.862;2023-06-14T07:01:48;7.43;;;5.83;;
12042;SDS011;6082;49.306;12.862;2023-06-14T07:04:14;6.43;;;4.97;;
12042;SDS011;6082;49.306;12.862;2023-06-14T07:06:41;6.23;;;4.73;;
12042;SDS011;6082;49.306;12.862;2023-06-14T07:09:08;5.87;;;4.80;;
12042;SDS011;6082;49.306;12.862;2023-06-14T07:11:38;6.00;;;4.70;;
12042;SDS011;6082;49.306;12.862;2023-06-14T07:14:04;6.67;;;5.20;;
12042;SDS011;6082;49.306;12.862;2023-06-14T07:16:30;6.13;;;4.63;;
12042;SDS011;6082;49.306;12.862;2023-06-14T07:18:56;8.00;;;5.00;;
12042;SDS011;6082;49.306;12.862;2023-06-14T07:21:25;6.20;;;4.87;;
12042;SDS011;6082;49.306;12.862;2023-06-14T07:23:52;6.00;;;4.60;;
12042;SDS011;6082;49.306;12.862;2023-06-14T07:26:18;5.53;;;4.37;;
12042;SDS011;6082;49.306;12.862;2023-06-14T07:28:44;5.47;;;4.30;;
12042;SDS011;6082;49.306;12.862;2023-06-14T07:31:10;5.57;;;4.60;;
12042;SDS011;6082;49.306;12.862;2023-06-14T07:33:37;6.33;;;4.57;;
12042;SDS011;6082;49.306;12.862;2023-06-14T07:36:03;5.80;;;4.60;;
12042;SDS011;6082;49.306;12.862;2023-06-14T07:38:29;4.10;;;3.50;;
12042;SDS011;6082;49.306;12.862;2023-06-14T07:40:55;6.13;;;3.47;;
12042;SDS011;6082;49.306;12.862;2023-06-14T07:43:20;4.80;;;3.33;;
12042;SDS011;6082;49.306;12.862;2023-06-14T07:45:46;5.13;;;3.23;;
12042;SDS011;6082;49.306;12.862;2023-06-14T07:48:12;4.90;;;3.50;;
12042;SDS011;6082;49.306;12.862;2023-06-14T07:50:38;3.87;;;3.37;;
12042;SDS011;6082;49.306;12.862;2023-06-14T07:53:04;4.83;;;3.37;;
12042;SDS011;6082;49.306;12.862;2023-06-14T07:55:29;3.83;;;3.40;;
12042;SDS011;6082;49.306;12.862;2023-06-14T07:57:57;3.70;;;3.30;;
12042;SDS011;6082;49.306;12.862;2023-06-14T08:00:23;5.17;;;3.40;;
12042;SDS011;6082;49.306;12.862;2023-06-14T08:02:49;4.83;;;3.37;;
12042;SDS011;6082;49.306;12.862;2023-06-14T08:05:17;4.40;;;3.40;;
12042;SDS011;6082;49.306;12.862;2023-06-14T08:07:42;4.30;;;3.17;;
12042;SDS011;6082;49.306;12.862;2023-06-14T08:10:08;3.63;;;3.27;;
12042;SDS011;6082;49.306;12.862;2023-06-14T08:12:35;4.43;;;3.37;;
12042;SDS011;6082;49.306;12.862;2023-06-14T08:15:01;4.57;;;3.30;;
12042;SDS011;6082;49.306;12.862;2023-06-14T08:17:27;5.43;;;3.03;;
12042;SDS011;6082;49.306;12.862;2023-06-14T08:19:53;4.37;;;2.70;;
12042;SDS011;6082;49.306;12.862;2023-06-14T08:22:22;4.13;;;3.13;;
12042;SDS011;6082;49.306;12.862;2023-06-14T08:24:49;4.40;;;3.40;;
12042;SDS011;6082;49.306;12.862;2023-06-14T08:27:15;3.97;;;3.50;;
12042;SDS011;6082;49.306;12.862;2023-06-14T08:29:41;3.50;;;3.07;;
12042;SDS011;6082;49.306;12.862;2023-06-14T08:32:07;5.40;;;3.60;;
12042;SDS011;6082;49.306;12.862;2023-06-14T08:34:33;5.73;;;3.43;;
12042;SDS011;6082;49.306;12.862;2023-06-14T08:36:59;4.30;;;3.40;;
12042;SDS011;6082;49.306;12.862;2023-06-14T08:39:25;5.77;;;3.17;;
12042;SDS011;6082;49.306;12.862;2023-06-14T08:41:51;4.00;;;3.20;;
12042;SDS011;6082;49.306;12.862;2023-06-14T08:44:18;4.20;;;3.40;;
12042;SDS011;6082;49.306;12.862;2023-06-14T08:46:43;3.90;;;3.20;;
12042;SDS011;6082;49.306;12.862;2023-06-14T08:49:13;5.80;;;3.37;;
12042;SDS011;6082;49.306;12.862;2023-06-14T08:51:41;4.37;;;3.20;;
12042;SDS011;6082;49.306;12.862;2023-06-14T08:54:08;3.70;;;3.30;;
12042;SDS011;6082;49.306;12.862;2023-06-14T08:56:39;4.70;;;3.50;;
12042;SDS011;6082;49.306;12.862;2023-06-14T08:59:06;3.93;;;3.23;;
12042;SDS011;6082;49.306;12.862;2023-06-14T09:01:34;4.23;;;3.17;;
12042;SDS011;6082;49.306;12.862;2023-06-14T09:04:02;3.43;;;3.07;;
12042;SDS011;6082;49.306;12.862;2023-06-14T09:06:30;4.03;;;3.27;;
12042;SDS011;6082;49.306;12.862;2023-06-14T09:08:56;4.47;;;3.60;;
12042;SDS011;6082;49.306;12.862;2023-06-14T09:11:23;5.23;;;3.20;;
12042;SDS011;6082;49.306;12.862;2023-06-14T09:13:51;3.83;;;2.80;;
12042;SDS011;6082;49.306;12.862;2023-06-14T09:16:18;4.00;;;3.27;;
12042;SDS011;6082;49.306;12.862;2023-06-14T09:18:45;5.07;;;3.07;;
12042;SDS011;6082;49.306;12.862;2023-06-14T09:21:15;4.03;;;3.40;;
12042;SDS011;6082;49.306;12.862;2023-06-14T09:23:42;5.33;;;3.30;;
12042;SDS011;6082;49.306;12.862;2023-06-14T09:26:16;5.03;;;3.47;;
12042;SDS011;6082;49.306;12.862;2023-06-14T09:28:45;3.63;;;3.30;;
12042;SDS011;6082;49.306;12.862;2023-06-14T09:31:15;4.50;;;3.30;;
12042;SDS011;6082;49.306;12.862;2023-06-14T09:33:51;5.10;;;3.20;;
12042;SDS011;6082;49.306;12.862;2023-06-14T09:36:26;4.30;;;3.17;;
12042;SDS011;6082;49.306;12.862;2023-06-14T09:38:56;3.97;;;3.17;;
12042;SDS011;6082;49.306;12.862;2023-06-14T09:41:33;3.87;;;3.23;;
12042;SDS011;6082;49.306;12.862;2023-06-14T09:44:00;4.80;;;3.27;;
12042;SDS011;6082;49.306;12.862;2023-06-14T09:46:27;4.97;;;3.50;;
12042;SDS011;6082;49.306;12.862;2023-06-14T09:48:57;3.77;;;3.27;;
12042;SDS011;6082;49.306;12.862;2023-06-14T09:51:23;3.50;;;3.10;;
12042;SDS011;6082;49.306;12.862;2023-06-14T09:53:50;6.07;;;3.33;;
12042;SDS011;6082;49.306;12.862;2023-06-14T09:58:53;6.47;;;3.63;;
12042;SDS011;6082;49.306;12.862;2023-06-14T10:01:27;4.77;;;3.00;;
12042;SDS011;6082;49.306;12.862;2023-06-14T10:04:01;4.20;;;3.10;;
12042;SDS011;6082;49.306;12.862;2023-06-14T10:06:31;4.00;;;3.20;;
12042;SDS011;6082;49.306;12.862;2023-06-14T10:09:07;3.43;;;3.13;;
12042;SDS011;6082;49.306;12.862;2023-06-14T10:11:34;4.07;;;3.40;;
12042;SDS011;6082;49.306;12.862;2023-06-14T10:14:01;5.17;;;2.93;;
12042;SDS011;6082;49.306;12.862;2023-06-14T10:16:31;5.37;;;3.33;;
12042;SDS011;6082;49.306;12.862;2023-06-14T10:24:43;3.23;;;2.93;;
12042;SDS011;6082;49.306;12.862;2023-06-14T10:27:13;4.70;;;3.30;;
12042;SDS011;6082;49.306;12.862;2023-06-14T10:32:24;4.10;;;3.30;;
12042;SDS011;6082;49.306;12.862;2023-06-14T10:37:46;3.80;;;3.00;;
12042;SDS011;6082;49.306;12.862;2023-06-14T10:40:30;3.97;;;3.10;;
12042;SDS011;6082;49.306;12.862;2023-06-14T10:42:56;3.00;;;2.80;;
12042;SDS011;6082;49.306;12.862;2023-06-14T10:45:22;4.57;;;3.00;;
12042;SDS011;6082;49.306;12.862;2023-06-14T10:47:48;4.03;;;3.50;;
12042;SDS011;6082;49.306;12.862;2023-06-14T10:50:17;3.57;;;3.20;;
12042;SDS011;6082;49.306;12.862;2023-06-14T10:52:53;4.63;;;3.20;;
12042;SDS011;6082;49.306;12.862;2023-06-14T10:55:19;5.17;;;3.30;;
12042;SDS011;6082;49.306;12.862;2023-06-14T10:57:54;3.90;;;3.27;;
12042;SDS011;6082;49.306;12.862;2023-06-14T11:00:27;4.97;;;3.80;;
12042;SDS011;6082;49.306;12.862;2023-06-14T11:05:54;3.53;;;2.73;;
12042;SDS011;6082;49.306;12.862;2023-06-14T11:11:18;3.27;;;2.80;;
12042;SDS011;6082;49.306;12.862;2023-06-14T11:13:46;4.00;;;2.90;;
12042;SDS011;6082;49.306;12.862;2023-06-14T11:16:13;3.50;;;3.00;;
12042;SDS011;6082;49.306;12.862;2023-06-14T11:18:40;4.57;;;3.07;;
12042;SDS011;6082;49.306;12.862;2023-06-14T11:21:06;4.30;;;2.90;;
12042;SDS011;6082;49.306;12.862;2023-06-14T11:23:33;3.57;;;2.67;;
12042;SDS011;6082;49.306;12.862;2023-06-14T11:26:00;4.07;;;3.27;;
12042;SDS011;6082;49.306;12.862;2023-06-14T11:28:35;4.43;;;3.43;;
12042;SDS011;6082;49.306;12.862;2023-06-14T11:31:04;5.90;;;3.33;;
12042;SDS011;6082;49.306;12.862;2023-06-14T11:33:30;4.03;;;3.10;;
12042;SDS011;6082;49.306;12.862;2023-06-14T11:35:56;4.57;;;3.27;;
12042;SDS011;6082;49.306;12.862;2023-06-14T11:38:22;4.37;;;3.27;;
12042;SDS011;6082;49.306;12.862;2023-06-14T11:40:47;3.40;;;3.00;;
12042;SDS011;6082;49.306;12.862;2023-06-14T11:43:13;3.70;;;3.00;;
12042;SDS011;6082;49.306;12.862;2023-06-14T11:45:39;3.50;;;3.20;;
12042;SDS011;6082;49.306;12.862;2023-06-14T11:48:06;4.47;;;3.40;;
12042;SDS011;6082;49.306;12.862;2023-06-14T11:50:31;4.67;;;3.30;;
12042;SDS011;6082;49.306;12.862;2023-06-14T11:52:58;3.70;;;3.07;;
12042;SDS011;6082;49.306;12.862;2023-06-14T11:55:32;4.30;;;3.30;;
12042;SDS011;6082;49.306;12.862;2023-06-14T11:58:01;5.20;;;3.43;;
12042;SDS011;6082;49.306;12.862;2023-06-14T12:00:28;3.03;;;2.73;;
12042;SDS011;6082;49.306;12.862;2023-06-14T12:02:57;3.27;;;2.70;;
12042;SDS011;6082;49.306;12.862;2023-06-14T12:05:23;4.43;;;3.17;;
12042;SDS011;6082;49.306;12.862;2023-06-14T12:07:57;4.03;;;3.20;;
12042;SDS011;6082;49.306;12.862;2023-06-14T12:10:28;3.43;;;3.13;;
12042;SDS011;6082;49.306;12.862;2023-06-14T12:12:58;4.27;;;3.20;;
12042;SDS011;6082;49.306;12.862;2023-06-14T12:15:24;3.20;;;2.90;;
12042;SDS011;6082;49.306;12.862;2023-06-14T12:17:54;4.77;;;3.40;;
12042;SDS011;6082;49.306;12.862;2023-06-14T12:20:20;4.93;;;3.27;;
12042;SDS011;6082;49.306;12.862;2023-06-14T12:22:53;3.50;;;2.97;;
12042;SDS011;6082;49.306;12.862;2023-06-14T12:27:55;3.97;;;2.93;;
12042;SDS011;6082;49.306;12.862;2023-06-14T12:30:22;3.47;;;3.00;;
12042;SDS011;6082;49.306;12.862;2023-06-14T12:32:51;3.70;;;2.93;;
12042;SDS011;6082;49.306;12.862;2023-06-14T12:35:17;4.30;;;2.97;;
12042;SDS011;6082;49.306;12.862;2023-06-14T12:37:46;3.43;;;2.80;;
12042;SDS011;6082;49.306;12.862;2023-06-14T12:40:12;3.87;;;2.87;;
12042;SDS011;6082;49.306;12.862;2023-06-14T12:42:38;3.33;;;2.83;;
12042;SDS011;6082;49.306;12.862;2023-06-14T12:45:05;3.67;;;3.20;;
12042;SDS011;6082;49.306;12.862;2023-06-14T12:47:31;4.40;;;3.03;;
12042;SDS011;6082;49.306;12.862;2023-06-14T12:49:57;3.03;;;2.57;;
12042;SDS011;6082;49.306;12.862;2023-06-14T12:52:23;4.40;;;2.77;;
12042;SDS011;6082;49.306;12.862;2023-06-14T12:54:49;4.43;;;3.03;;
12042;SDS011;6082;49.306;12.862;2023-06-14T12:57:15;4.03;;;3.00;;
12042;SDS011;6082;49.306;12.862;2023-06-14T12:59:41;5.23;;;3.23;;
12042;SDS011;6082;49.306;12.862;2023-06-14T13:02:13;3.67;;;2.87;;
12042;SDS011;6082;49.306;12.862;2023-06-14T13:04:43;3.20;;;2.90;;
12042;SDS011;6082;49.306;12.862;2023-06-14T13:07:08;3.50;;;2.90;;
12042;SDS011;6082;49.306;12.862;2023-06-14T13:09:35;3.03;;;2.43;;
12042;SDS011;6082;49.306;12.862;2023-06-14T13:12:02;4.07;;;2.90;;
12042;SDS011;6082;49.306;12.862;2023-06-14T13:14:28;3.30;;;2.77;;
12042;SDS011;6082;49.306;12.862;2023-06-14T13:16:54;3.93;;;2.80;;
12042;SDS011;6082;49.306;12.862;2023-06-14T13:19:20;5.03;;;3.00;;
12042;SDS011;6082;49.306;12.862;2023-06-14T13:21:49;2.73;;;2.50;;
12042;SDS011;6082;49.306;12.862;2023-06-14T13:24:15;3.67;;;2.70;;
12042;SDS011;6082;49.306;12.862;2023-06-14T13:26:41;2.90;;;2.70;;
12042;SDS011;6082;49.306;12.862;2023-06-14T13:29:07;3.40;;;3.07;;
12042;SDS011;6082;49.306;12.862;2023-06-14T13:31:32;3.27;;;2.97;;
12042;SDS011;6082;49.306;12.862;2023-06-14T13:33:58;4.00;;;3.27;;
12042;SDS011;6082;49.306;12.862;2023-06-14T13:36:24;3.47;;;2.77;;
12042;SDS011;6082;49.306;12.862;2023-06-14T13:38:50;4.03;;;3.40;;
12042;SDS011;6082;49.306;12.862;2023-06-14T13:41:17;3.33;;;3.03;;
12042;SDS011;6082;49.306;12.862;2023-06-14T13:43:43;4.37;;;2.90;;
12042;SDS011;6082;49.306;12.862;2023-06-14T13:46:09;3.43;;;2.87;;
12042;SDS011;6082;49.306;12.862;2023-06-14T13:48:34;4.17;;;3.23;;
12042;SDS011;6082;49.306;12.862;2023-06-14T13:51:00;3.20;;;2.90;;
12042;SDS011;6082;49.306;12.862;2023-06-14T13:53:28;4.27;;;3.10;;
12042;SDS011;6082;49.306;12.862;2023-06-14T13:55:54;3.57;;;3.00;;
12042;SDS011;6082;49.306;12.862;2023-06-14T13:58:20;3.60;;;3.07;;
12042;SDS011;6082;49.306;12.862;2023-06-14T14:00:46;4.00;;;3.00;;
12042;SDS011;6082;49.306;12.862;2023-06-14T14:03:12;3.53;;;2.93;;
12042;SDS011;6082;49.306;12.862;2023-06-14T14:05:38;3.47;;;2.93;;
12042;SDS011;6082;49.306;12.862;2023-06-14T14:08:03;3.33;;;2.97;;
12042;SDS011;6082;49.306;12.862;2023-06-14T14:10:32;3.23;;;2.93;;
12042;SDS011;6082;49.306;12.862;2023-06-14T14:12:58;3.23;;;2.67;;
12042;SDS011;6082;49.306;12.862;2023-06-14T14:15:24;3.13;;;2.83;;
12042;SDS011;6082;49.306;12.862;2023-06-14T14:17:51;3.73;;;2.93;;
12042;SDS011;6082;49.306;12.862;2023-06-14T14:20:19;3.57;;;3.10;;
12042;SDS011;6082;49.306;12.862;2023-06-14T14:22:44;3.43;;;2.87;;
12042;SDS011;6082;49.306;12.862;2023-06-14T14:25:10;4.60;;;3.27;;
12042;SDS011;6082;49.306;12.862;2023-06-14T14:27:36;3.43;;;2.87;;
12042;SDS011;6082;49.306;12.862;2023-06-14T14:30:03;3.40;;;2.97;;
12042;SDS011;6082;49.306;12.862;2023-06-14T14:32:30;3.43;;;2.90;;
12042;SDS011;6082;49.306;12.862;2023-06-14T14:34:56;3.20;;;2.90;;
12042;SDS011;6082;49.306;12.862;2023-06-14T14:37:23;3.00;;;2.70;;
12042;SDS011;6082;49.306;12.862;2023-06-14T14:39:49;3.80;;;3.07;;
12042;SDS011;6082;49.306;12.862;2023-06-14T14:42:15;3.00;;;2.60;;
12042;SDS011;6082;49.306;12.862;2023-06-14T14:44:41;3.00;;;2.67;;
12042;SDS011;6082;49.306;12.862;2023-06-14T14:47:07;3.57;;;2.97;;
12042;SDS011;6082;49.306;12.862;2023-06-14T14:49:33;3.20;;;2.90;;
12042;SDS011;6082;49.306;12.862;2023-06-14T14:51:58;4.87;;;2.63;;
12042;SDS011;6082;49.306;12.862;2023-06-14T14:54:24;3.40;;;3.03;;
12042;SDS011;6082;49.306;12.862;2023-06-14T14:56:51;2.97;;;2.67;;
12042;SDS011;6082;49.306;12.862;2023-06-14T14:59:17;3.13;;;2.80;;
12042;SDS011;6082;49.306;12.862;2023-06-14T15:01:43;3.53;;;2.50;;
12042;SDS011;6082;49.306;12.862;2023-06-14T15:04:10;3.17;;;2.57;;
12042;SDS011;6082;49.306;12.862;2023-06-14T15:06:36;3.03;;;2.73;;
12042;SDS011;6082;49.306;12.862;2023-06-14T15:09:05;2.90;;;2.60;;
12042;SDS011;6082;49.306;12.862;2023-06-14T15:11:31;4.17;;;2.97;;
12042;SDS011;6082;49.306;12.862;2023-06-14T15:13:57;6.13;;;2.90;;
12042;SDS011;6082;49.306;12.862;2023-06-14T15:16:23;3.13;;;2.73;;
12042;SDS011;6082;49.306;12.862;2023-06-14T15:18:49;3.43;;;2.90;;